Terminal Aerodrome Forecast
Issued by NWS

Home | Current Version | Previous Version | Graphics & Text | Print | Product List | Glossary On
Versions: 1 2 3 4 5 6 7 8 9 10 11 12 13 14 15 16 17 18 19 20 21 22 23 24 25 26
584
FTUS45 KGGW 221720
TAFGDV
TAF
KGDV 221720Z 2218/2318 01012KT P6SM VCSH OVC010
     FM230000 02009KT P6SM SCT010 OVC012
     FM230500 04007KT P6SM SCT012 OVC018
     FM230900 05007KT P6SM SCT015 BKN020=

USA.gov is the U.S. government's official web portal to all federal, state and local government web resources and services.